sensor_id;sensor_type;location;lat;lon;timestamp;temperature;humidity
19728;DHT22;10015;52.530;13.390;2022-09-09T04:16:50;16.60;99.90
19728;DHT22;10015;52.530;13.390;2022-09-09T04:19:16;16.60;99.90
19728;DHT22;10015;52.530;13.390;2022-09-09T04:21:43;16.60;99.90
19728;DHT22;10015;52.530;13.390;2022-09-09T04:24:11;16.50;99.90
19728;DHT22;10015;52.530;13.390;2022-09-09T04:26:37;16.50;99.90
19728;DHT22;10015;52.530;13.390;2022-09-09T04:29:04;16.60;99.90
19728;DHT22;10015;52.530;13.390;2022-09-09T04:31:34;16.60;99.90
19728;DHT22;10015;52.530;13.390;2022-09-09T04:34:01;16.60;99.90
19728;DHT22;10015;52.530;13.390;2022-09-09T04:36:32;16.60;99.90
19728;DHT22;10015;52.530;13.390;2022-09-09T04:39:00;16.60;99.90
19728;DHT22;10015;52.530;13.390;2022-09-09T04:41:27;16.40;99.90
19728;DHT22;10015;52.530;13.390;2022-09-09T04:43:54;16.40;99.90
19728;DHT22;10015;52.530;13.390;2022-09-09T04:46:25;16.40;99.90
19728;DHT22;10015;52.530;13.390;2022-09-09T04:48:51;16.30;99.90
19728;DHT22;10015;52.530;13.390;2022-09-09T04:51:19;16.20;99.90
19728;DHT22;10015;52.530;13.390;2022-09-09T04:53:47;16.20;99.90
19728;DHT22;10015;52.530;13.390;2022-09-09T04:56:17;16.20;99.90
19728;DHT22;10015;52.530;13.390;2022-09-09T04:58:55;16.10;99.90
19728;DHT22;10015;52.530;13.390;2022-09-09T05:01:24;16.10;99.90
19728;DHT22;10015;52.530;13.390;2022-09-09T05:03:51;16.00;99.90
19728;DHT22;10015;52.530;13.390;2022-09-09T05:06:22;15.90;99.90
19728;DHT22;10015;52.530;13.390;2022-09-09T05:08:51;16.10;99.90
19728;DHT22;10015;52.530;13.390;2022-09-09T05:11:23;16.20;99.90
19728;DHT22;10015;52.530;13.390;2022-09-09T05:13:50;16.30;99.90
19728;DHT22;10015;52.530;13.390;2022-09-09T05:16:18;16.30;99.90
19728;DHT22;10015;52.530;13.390;2022-09-09T05:18:44;16.30;99.90
19728;DHT22;10015;52.530;13.390;2022-09-09T05:21:18;16.40;99.90
19728;DHT22;10015;52.530;13.390;2022-09-09T05:23:45;16.50;99.90
19728;DHT22;10015;52.530;13.390;2022-09-09T05:26:13;16.60;99.90
19728;DHT22;10015;52.530;13.390;2022-09-09T05:28:40;16.70;99.90
19728;DHT22;10015;52.530;13.390;2022-09-09T05:31:07;16.70;99.90
19728;DHT22;10015;52.530;13.390;2022-09-09T05:33:41;16.50;99.90
19728;DHT22;10015;52.530;13.390;2022-09-09T05:36:17;16.60;99.90
19728;DHT22;10015;52.530;13.390;2022-09-09T05:38:46;16.60;99.90
19728;DHT22;10015;52.530;13.390;2022-09-09T05:41:14;16.60;99.90
19728;DHT22;10015;52.530;13.390;2022-09-09T05:43:44;16.80;99.90
19728;DHT22;10015;52.530;13.390;2022-09-09T05:46:13;16.80;99.90
19728;DHT22;10015;52.530;13.390;2022-09-09T05:48:42;16.80;99.90
19728;DHT22;10015;52.530;13.390;2022-09-09T05:51:11;16.70;99.90
19728;DHT22;10015;52.530;13.390;2022-09-09T05:53:39;16.90;99.90
19728;DHT22;10015;52.530;13.390;2022-09-09T05:56:16;16.90;99.90
19728;DHT22;10015;52.530;13.390;2022-09-09T05:58:43;17.00;99.90
19728;DHT22;10015;52.530;13.390;2022-09-09T06:01:13;17.10;99.90
19728;DHT22;10015;52.530;13.390;2022-09-09T06:03:42;17.10;99.90
19728;DHT22;10015;52.530;13.390;2022-09-09T06:06:11;16.90;99.90
19728;DHT22;10015;52.530;13.390;2022-09-09T06:08:40;16.80;99.90
19728;DHT22;10015;52.530;13.390;2022-09-09T06:11:15;16.70;99.90
19728;DHT22;10015;52.530;13.390;2022-09-09T06:13:42;16.80;99.90
19728;DHT22;10015;52.530;13.390;2022-09-09T06:16:13;16.90;99.90
19728;DHT22;10015;52.530;13.390;2022-09-09T06:18:40;16.90;99.90
19728;DHT22;10015;52.530;13.390;2022-09-09T06:21:11;16.90;99.90
19728;DHT22;10015;52.530;13.390;2022-09-09T06:23:40;16.90;99.90
19728;DHT22;10015;52.530;13.390;2022-09-09T06:26:10;17.00;99.90
19728;DHT22;10015;52.530;13.390;2022-09-09T06:28:37;17.00;99.90
19728;DHT22;10015;52.530;13.390;2022-09-09T06:31:08;17.10;99.90
19728;DHT22;10015;52.530;13.390;2022-09-09T06:33:37;17.30;99.90
19728;DHT22;10015;52.530;13.390;2022-09-09T06:36:15;17.40;99.90
19728;DHT22;10015;52.530;13.390;2022-09-09T06:38:42;17.40;99.90
19728;DHT22;10015;52.530;13.390;2022-09-09T06:41:11;17.60;99.90
19728;DHT22;10015;52.530;13.390;2022-09-09T06:43:39;17.70;99.90
19728;DHT22;10015;52.530;13.390;2022-09-09T06:46:08;17.60;99.90
19728;DHT22;10015;52.530;13.390;2022-09-09T06:48:35;17.50;99.90
19728;DHT22;10015;52.530;13.390;2022-09-09T06:51:10;17.30;99.90
19728;DHT22;10015;52.530;13.390;2022-09-09T06:53:38;17.50;99.90
19728;DHT22;10015;52.530;13.390;2022-09-09T06:58:39;17.60;99.90
19728;DHT22;10015;52.530;13.390;2022-09-09T07:01:10;17.70;99.90
19728;DHT22;10015;52.530;13.390;2022-09-09T07:03:38;17.90;99.90
19728;DHT22;10015;52.530;13.390;2022-09-09T07:06:06;18.30;99.90
19728;DHT22;10015;52.530;13.390;2022-09-09T07:08:32;18.60;99.90
19728;DHT22;10015;52.530;13.390;2022-09-09T07:11:09;19.00;99.90
19728;DHT22;10015;52.530;13.390;2022-09-09T07:13:37;19.40;99.90
19728;DHT22;10015;52.530;13.390;2022-09-09T07:16:08;19.80;99.90
19728;DHT22;10015;52.530;13.390;2022-09-09T07:18:34;20.10;99.90
19728;DHT22;10015;52.530;13.390;2022-09-09T07:21:02;20.60;99.90
19728;DHT22;10015;52.530;13.390;2022-09-09T07:23:29;21.20;99.90
19728;DHT22;10015;52.530;13.390;2022-09-09T07:25:57;21.70;99.90
19728;DHT22;10015;52.530;13.390;2022-09-09T07:28:25;22.20;99.90
19728;DHT22;10015;52.530;13.390;2022-09-09T07:30:58;22.50;99.90
19728;DHT22;10015;52.530;13.390;2022-09-09T07:33:26;22.80;99.90
19728;DHT22;10015;52.530;13.390;2022-09-09T07:35:53;22.90;99.90
19728;DHT22;10015;52.530;13.390;2022-09-09T07:38:21;22.90;99.90
19728;DHT22;10015;52.530;13.390;2022-09-09T07:40:48;23.10;99.90
19728;DHT22;10015;52.530;13.390;2022-09-09T07:43:15;23.40;99.90
19728;DHT22;10015;52.530;13.390;2022-09-09T07:45:43;23.70;99.90
19728;DHT22;10015;52.530;13.390;2022-09-09T07:48:09;24.00;99.90
19728;DHT22;10015;52.530;13.390;2022-09-09T07:50:37;24.20;99.90
19728;DHT22;10015;52.530;13.390;2022-09-09T07:53:03;24.40;99.90
19728;DHT22;10015;52.530;13.390;2022-09-09T07:55:32;24.70;99.90
19728;DHT22;10015;52.530;13.390;2022-09-09T07:57:59;24.80;99.90
19728;DHT22;10015;52.530;13.390;2022-09-09T08:00:26;25.00;99.90
19728;DHT22;10015;52.530;13.390;2022-09-09T08:02:56;25.20;99.90
19728;DHT22;10015;52.530;13.390;2022-09-09T08:05:22;25.40;99.90
19728;DHT22;10015;52.530;13.390;2022-09-09T08:07:49;25.60;99.90
19728;DHT22;10015;52.530;13.390;2022-09-09T08:10:15;25.80;99.90
19728;DHT22;10015;52.530;13.390;2022-09-09T08:12:43;26.10;99.90
19728;DHT22;10015;52.530;13.390;2022-09-09T08:15:16;26.20;99.90
19728;DHT22;10015;52.530;13.390;2022-09-09T08:17:44;26.30;99.90
19728;DHT22;10015;52.530;13.390;2022-09-09T08:20:10;26.40;99.90
19728;DHT22;10015;52.530;13.390;2022-09-09T08:22:37;26.60;99.90
19728;DHT22;10015;52.530;13.390;2022-09-09T08:25:04;26.80;99.90
19728;DHT22;10015;52.530;13.390;2022-09-09T08:27:32;26.90;99.90
19728;DHT22;10015;52.530;13.390;2022-09-09T08:29:59;27.00;99.90
19728;DHT22;10015;52.530;13.390;2022-09-09T08:32:27;26.70;99.90
19728;DHT22;10015;52.530;13.390;2022-09-09T08:34:53;26.50;99.90
19728;DHT22;10015;52.530;13.390;2022-09-09T08:37:21;26.20;99.90
19728;DHT22;10015;52.530;13.390;2022-09-09T08:39:48;25.90;99.90
19728;DHT22;10015;52.530;13.390;2022-09-09T08:42:30;25.60;99.90
19728;DHT22;10015;52.530;13.390;2022-09-09T08:48:14;25.10;99.90
19728;DHT22;10015;52.530;13.390;2022-09-09T08:50:43;24.90;99.90
19728;DHT22;10015;52.530;13.390;2022-09-09T08:55:54;24.50;99.90
19728;DHT22;10015;52.530;13.390;2022-09-09T08:58:52;24.20;99.90
19728;DHT22;10015;52.530;13.390;2022-09-09T09:04:38;23.70;99.90
19728;DHT22;10015;52.530;13.390;2022-09-09T09:10:36;23.30;99.90
19728;DHT22;10015;52.530;13.390;2022-09-09T09:13:15;22.70;99.90
19728;DHT22;10015;52.530;13.390;2022-09-09T09:15:45;22.30;99.90
19728;DHT22;10015;52.530;13.390;2022-09-09T09:18:13;22.30;99.90
19728;DHT22;10015;52.530;13.390;2022-09-09T09:20:50;22.50;99.90
19728;DHT22;10015;52.530;13.390;2022-09-09T09:23:26;22.40;99.90
19728;DHT22;10015;52.530;13.390;2022-09-09T09:26:00;22.60;99.90
19728;DHT22;10015;52.530;13.390;2022-09-09T09:28:29;22.80;99.90
19728;DHT22;10015;52.530;13.390;2022-09-09T09:31:08;23.10;99.90
19728;DHT22;10015;52.530;13.390;2022-09-09T09:33:54;23.40;99.90
19728;DHT22;10015;52.530;13.390;2022-09-09T09:36:54;23.80;99.90
19728;DHT22;10015;52.530;13.390;2022-09-09T09:39:32;24.20;99.90
19728;DHT22;10015;52.530;13.390;2022-09-09T09:42:16;24.60;99.90
19728;DHT22;10015;52.530;13.390;2022-09-09T09:44:46;25.00;99.90
19728;DHT22;10015;52.530;13.390;2022-09-09T09:47:19;25.40;99.90
19728;DHT22;10015;52.530;13.390;2022-09-09T09:49:59;25.70;99.90
19728;DHT22;10015;52.530;13.390;2022-09-09T09:52:32;25.60;99.90
19728;DHT22;10015;52.530;13.390;2022-09-09T09:55:04;25.80;99.90
19728;DHT22;10015;52.530;13.390;2022-09-09T09:57:33;26.00;99.90
19728;DHT22;10015;52.530;13.390;2022-09-09T10:00:15;26.20;99.90
19728;DHT22;10015;52.530;13.390;2022-09-09T10:02:48;26.60;99.90
19728;DHT22;10015;52.530;13.390;2022-09-09T10:05:27;26.40;99.90
19728;DHT22;10015;52.530;13.390;2022-09-09T10:08:11;26.10;99.90
19728;DHT22;10015;52.530;13.390;2022-09-09T10:13:33;26.40;99.90
19728;DHT22;10015;52.530;13.390;2022-09-09T10:19:01;26.90;99.90
19728;DHT22;10015;52.530;13.390;2022-09-09T10:26:43;27.20;99.90
19728;DHT22;10015;52.530;13.390;2022-09-09T10:35:29;27.50;99.90
19728;DHT22;10015;52.530;13.390;2022-09-09T10:43:54;27.40;99.90
19728;DHT22;10015;52.530;13.390;2022-09-09T10:55:14;27.20;99.90
19728;DHT22;10015;52.530;13.390;2022-09-09T10:57:55;26.60;99.90
19728;DHT22;10015;52.530;13.390;2022-09-09T11:00:41;26.50;99.90
19728;DHT22;10015;52.530;13.390;2022-09-09T11:05:57;26.50;99.90
19728;DHT22;10015;52.530;13.390;2022-09-09T11:08:29;26.50;99.90
19728;DHT22;10015;52.530;13.390;2022-09-09T11:19:16;26.60;99.90
19728;DHT22;10015;52.530;13.390;2022-09-09T11:21:49;26.70;99.90
19728;DHT22;10015;52.530;13.390;2022-09-09T11:26:58;26.80;99.90
19728;DHT22;10015;52.530;13.390;2022-09-09T11:30:14;26.90;99.90
19728;DHT22;10015;52.530;13.390;2022-09-09T11:38:44;26.10;99.90
19728;DHT22;10015;52.530;13.390;2022-09-09T11:41:09;26.20;99.90
19728;DHT22;10015;52.530;13.390;2022-09-09T11:43:49;26.30;99.90
19728;DHT22;10015;52.530;13.390;2022-09-09T11:46:20;26.20;99.90
19728;DHT22;10015;52.530;13.390;2022-09-09T11:49:03;25.60;99.90
19728;DHT22;10015;52.530;13.390;2022-09-09T11:51:32;25.20;99.90
19728;DHT22;10015;52.530;13.390;2022-09-09T11:53:59;24.70;99.90
19728;DHT22;10015;52.530;13.390;2022-09-09T11:56:32;24.60;99.90
19728;DHT22;10015;52.530;13.390;2022-09-09T12:01:39;24.40;99.90
19728;DHT22;10015;52.530;13.390;2022-09-09T12:04:28;24.50;99.90
19728;DHT22;10015;52.530;13.390;2022-09-09T12:06:59;24.00;99.90
19728;DHT22;10015;52.530;13.390;2022-09-09T12:12:28;23.80;99.90
19728;DHT22;10015;52.530;13.390;2022-09-09T12:17:50;24.10;99.90
19728;DHT22;10015;52.530;13.390;2022-09-09T12:23:15;24.60;99.90
19728;DHT22;10015;52.530;13.390;2022-09-09T12:31:15;25.30;99.90
19728;DHT22;10015;52.530;13.390;2022-09-09T12:33:48;25.10;99.90
19728;DHT22;10015;52.530;13.390;2022-09-09T12:36:21;25.00;99.90
19728;DHT22;10015;52.530;13.390;2022-09-09T12:38:49;24.70;99.90
19728;DHT22;10015;52.530;13.390;2022-09-09T12:41:27;24.50;99.90
19728;DHT22;10015;52.530;13.390;2022-09-09T12:44:09;24.40;99.90
19728;DHT22;10015;52.530;13.390;2022-09-09T12:46:45;24.30;99.90
19728;DHT22;10015;52.530;13.390;2022-09-09T12:49:37;24.10;99.90
19728;DHT22;10015;52.530;13.390;2022-09-09T12:52:20;24.00;99.90
19728;DHT22;10015;52.530;13.390;2022-09-09T12:54:48;24.00;99.90
19728;DHT22;10015;52.530;13.390;2022-09-09T12:57:17;24.00;99.90
19728;DHT22;10015;52.530;13.390;2022-09-09T12:59:44;24.00;99.90
19728;DHT22;10015;52.530;13.390;2022-09-09T13:02:24;23.90;99.90
19728;DHT22;10015;52.530;13.390;2022-09-09T13:04:51;23.80;99.90
19728;DHT22;10015;52.530;13.390;2022-09-09T13:07:19;23.70;99.90
19728;DHT22;10015;52.530;13.390;2022-09-09T13:09:47;23.60;99.90
19728;DHT22;10015;52.530;13.390;2022-09-09T13:12:23;23.60;99.90
19728;DHT22;10015;52.530;13.390;2022-09-09T13:14:56;23.70;99.90
19728;DHT22;10015;52.530;13.390;2022-09-09T13:17:24;23.70;99.90
19728;DHT22;10015;52.530;13.390;2022-09-09T13:19:52;23.60;99.90
19728;DHT22;10015;52.530;13.390;2022-09-09T13:22:31;23.60;99.90
19728;DHT22;10015;52.530;13.390;2022-09-09T13:25:04;23.60;99.90
19728;DHT22;10015;52.530;13.390;2022-09-09T13:27:39;23.50;99.90
19728;DHT22;10015;52.530;13.390;2022-09-09T13:33:04;23.20;99.90
19728;DHT22;10015;52.530;13.390;2022-09-09T13:35:32;23.30;99.90
19728;DHT22;10015;52.530;13.390;2022-09-09T13:38:06;23.20;99.90
19728;DHT22;10015;52.530;13.390;2022-09-09T13:40:33;23.20;99.90
19728;DHT22;10015;52.530;13.390;2022-09-09T13:43:00;23.30;99.90
19728;DHT22;10015;52.530;13.390;2022-09-09T13:45:27;23.30;99.90
19728;DHT22;10015;52.530;13.390;2022-09-09T13:47:54;23.40;99.90
19728;DHT22;10015;52.530;13.390;2022-09-09T13:50:26;23.50;99.90
19728;DHT22;10015;52.530;13.390;2022-09-09T13:52:58;23.50;99.90
19728;DHT22;10015;52.530;13.390;2022-09-09T13:55:29;23.70;99.90
19728;DHT22;10015;52.530;13.390;2022-09-09T13:58:05;23.90;99.90
19728;DHT22;10015;52.530;13.390;2022-09-09T14:03:32;24.20;99.90
19728;DHT22;10015;52.530;13.390;2022-09-09T14:05:59;23.90;99.90
19728;DHT22;10015;52.530;13.390;2022-09-09T14:08:26;24.10;99.90
19728;DHT22;10015;52.530;13.390;2022-09-09T14:10:54;24.00;99.90
19728;DHT22;10015;52.530;13.390;2022-09-09T14:13:21;23.80;99.90
19728;DHT22;10015;52.530;13.390;2022-09-09T14:15:48;23.70;99.90
19728;DHT22;10015;52.530;13.390;2022-09-09T14:18:14;23.80;99.90
19728;DHT22;10015;52.530;13.390;2022-09-09T14:20:40;23.90;99.90
19728;DHT22;10015;52.530;13.390;2022-09-09T14:23:10;23.90;99.90
19728;DHT22;10015;52.530;13.390;2022-09-09T14:25:42;23.90;99.90
19728;DHT22;10015;52.530;13.390;2022-09-09T14:28:13;23.80;99.90
19728;DHT22;10015;52.530;13.390;2022-09-09T14:30:41;23.80;99.90
19728;DHT22;10015;52.530;13.390;2022-09-09T14:33:10;23.80;99.90
19728;DHT22;10015;52.530;13.390;2022-09-09T14:35:37;23.80;99.90
19728;DHT22;10015;52.530;13.390;2022-09-09T14:38:04;24.00;99.90
19728;DHT22;10015;52.530;13.390;2022-09-09T14:40:31;24.10;99.90
19728;DHT22;10015;52.530;13.390;2022-09-09T14:42:57;23.90;99.90
19728;DHT22;10015;52.530;13.390;2022-09-09T14:45:24;23.60;99.90
19728;DHT22;10015;52.530;13.390;2022-09-09T14:47:51;23.40;99.90
19728;DHT22;10015;52.530;13.390;2022-09-09T14:50:22;23.30;99.90
19728;DHT22;10015;52.530;13.390;2022-09-09T14:52:49;23.10;99.90
19728;DHT22;10015;52.530;13.390;2022-09-09T14:55:16;23.00;99.90
19728;DHT22;10015;52.530;13.390;2022-09-09T14:57:42;23.00;99.90
19728;DHT22;10015;52.530;13.390;2022-09-09T15:00:10;22.90;99.90
19728;DHT22;10015;52.530;13.390;2022-09-09T15:02:37;22.80;99.90
19728;DHT22;10015;52.530;13.390;2022-09-09T15:05:04;22.70;99.90
19728;DHT22;10015;52.530;13.390;2022-09-09T15:07:30;22.70;99.90
19728;DHT22;10015;52.530;13.390;2022-09-09T15:09:57;22.60;99.90
19728;DHT22;10015;52.530;13.390;2022-09-09T15:12:24;22.70;99.90
19728;DHT22;10015;52.530;13.390;2022-09-09T15:14:50;22.70;99.90
19728;DHT22;10015;52.530;13.390;2022-09-09T15:17:16;22.60;99.90
19728;DHT22;10015;52.530;13.390;2022-09-09T15:19:42;22.60;99.90
19728;DHT22;10015;52.530;13.390;2022-09-09T15:22:08;22.60;99.90
19728;DHT22;10015;52.530;13.390;2022-09-09T15:24:35;22.60;99.90
19728;DHT22;10015;52.530;13.390;2022-09-09T15:27:01;22.60;99.90
19728;DHT22;10015;52.530;13.390;2022-09-09T15:29:27;22.80;99.90
19728;DHT22;10015;52.530;13.390;2022-09-09T15:31:54;22.90;99.90
19728;DHT22;10015;52.530;13.390;2022-09-09T15:34:23;22.90;99.90
19728;DHT22;10015;52.530;13.390;2022-09-09T15:36:49;22.90;99.90
19728;DHT22;10015;52.530;13.390;2022-09-09T15:39:17;22.80;99.90
19728;DHT22;10015;52.530;13.390;2022-09-09T15:41:47;22.70;99.90
19728;DHT22;10015;52.530;13.390;2022-09-09T15:44:15;22.70;99.90
19728;DHT22;10015;52.530;13.390;2022-09-09T15:46:42;22.70;99.90
19728;DHT22;10015;52.530;13.390;2022-09-09T15:49:15;22.80;99.90
19728;DHT22;10015;52.530;13.390;2022-09-09T15:51:46;22.80;99.90
19728;DHT22;10015;52.530;13.390;2022-09-09T15:54:15;22.80;99.90
19728;DHT22;10015;52.530;13.390;2022-09-09T15:56:46;22.70;99.90
19728;DHT22;10015;52.530;13.390;2022-09-09T15:59:13;22.70;99.90
19728;DHT22;10015;52.530;13.390;2022-09-09T16:01:40;22.70;99.90
19728;DHT22;10015;52.530;13.390;2022-09-09T16:04:08;22.70;99.90
19728;DHT22;10015;52.530;13.390;2022-09-09T16:06:34;22.70;99.90
19728;DHT22;10015;52.530;13.390;2022-09-09T16:09:03;22.80;99.90
19728;DHT22;10015;52.530;13.390;2022-09-09T16:11:33;22.80;99.90
19728;DHT22;10015;52.530;13.390;2022-09-09T16:13:59;22.70;99.90
19728;DHT22;10015;52.530;13.390;2022-09-09T16:16:27;22.80;99.90
19728;DHT22;10015;52.530;13.390;2022-09-09T16:18:57;22.80;99.90
19728;DHT22;10015;52.530;13.390;2022-09-09T16:21:32;22.80;99.90
19728;DHT22;10015;52.530;13.390;2022-09-09T16:24:00;22.60;99.90
19728;DHT22;10015;52.530;13.390;2022-09-09T16:26:27;22.50;99.90
19728;DHT22;10015;52.530;13.390;2022-09-09T16:28:54;22.40;99.90
19728;DHT22;10015;52.530;13.390;2022-09-09T16:31:22;22.40;99.90
19728;DHT22;10015;52.530;13.390;2022-09-09T16:33:49;22.40;99.90
19728;DHT22;10015;52.530;13.390;2022-09-09T16:36:21;22.50;99.90
19728;DHT22;10015;52.530;13.390;2022-09-09T16:38:51;22.40;99.90
19728;DHT22;10015;52.530;13.390;2022-09-09T16:41:17;22.50;99.90
19728;DHT22;10015;52.530;13.390;2022-09-09T16:43:44;22.60;99.90
19728;DHT22;10015;52.530;13.390;2022-09-09T16:46:16;22.40;99.90
19728;DHT22;10015;52.530;13.390;2022-09-09T16:48:43;22.30;99.90
19728;DHT22;10015;52.530;13.390;2022-09-09T16:51:18;22.20;99.90
19728;DHT22;10015;52.530;13.390;2022-09-09T16:53:44;22.20;99.90
19728;DHT22;10015;52.530;13.390;2022-09-09T16:56:13;22.20;99.90
19728;DHT22;10015;52.530;13.390;2022-09-09T16:58:40;22.10;99.90
19728;DHT22;10015;52.530;13.390;2022-09-09T17:01:07;22.10;99.90
19728;DHT22;10015;52.530;13.390;2022-09-09T17:03:33;22.10;99.90
19728;DHT22;10015;52.530;13.390;2022-09-09T17:05:59;22.00;99.90
19728;DHT22;10015;52.530;13.390;2022-09-09T17:08:29;22.10;99.90
19728;DHT22;10015;52.530;13.390;2022-09-09T17:10:55;22.00;99.90
19728;DHT22;10015;52.530;13.390;2022-09-09T17:16:16;22.10;99.90
19728;DHT22;10015;52.530;13.390;2022-09-09T17:18:42;22.00;99.90
19728;DHT22;10015;52.530;13.390;2022-09-09T17:21:13;21.90;99.90
19728;DHT22;10015;52.530;13.390;2022-09-09T17:23:40;21.90;99.90
19728;DHT22;10015;52.530;13.390;2022-09-09T17:26:14;21.80;99.90
19728;DHT22;10015;52.530;13.390;2022-09-09T17:28:41;21.90;99.90
19728;DHT22;10015;52.530;13.390;2022-09-09T17:31:10;21.70;99.90
19728;DHT22;10015;52.530;13.390;2022-09-09T17:33:40;21.50;99.90
19728;DHT22;10015;52.530;13.390;2022-09-09T17:36:16;21.40;99.90
19728;DHT22;10015;52.530;13.390;2022-09-09T17:38:43;21.30;99.90
19728;DHT22;10015;52.530;13.390;2022-09-09T17:41:13;21.30;99.90
19728;DHT22;10015;52.530;13.390;2022-09-09T17:43:39;21.30;99.90
19728;DHT22;10015;52.530;13.390;2022-09-09T17:48:36;21.40;99.90
19728;DHT22;10015;52.530;13.390;2022-09-09T17:51:07;21.50;99.90
19728;DHT22;10015;52.530;13.390;2022-09-09T17:53:39;21.40;99.90
19728;DHT22;10015;52.530;13.390;2022-09-09T17:56:06;21.10;99.90
19728;DHT22;10015;52.530;13.390;2022-09-09T17:58:32;20.90;99.90
19728;DHT22;10015;52.530;13.390;2022-09-09T18:01:07;20.80;99.90
19728;DHT22;10015;52.530;13.390;2022-09-09T18:03:39;20.70;99.90
19728;DHT22;10015;52.530;13.390;2022-09-09T18:06:07;20.60;99.90
19728;DHT22;10015;52.530;13.390;2022-09-09T18:08:35;20.50;99.90
19728;DHT22;10015;52.530;13.390;2022-09-09T18:11:02;20.50;99.90
19728;DHT22;10015;52.530;13.390;2022-09-09T18:13:29;20.30;99.90
19728;DHT22;10015;52.530;13.390;2022-09-09T18:15:55;20.30;99.90
19728;DHT22;10015;52.530;13.390;2022-09-09T18:18:21;20.20;99.90
19728;DHT22;10015;52.530;13.390;2022-09-09T18:21:06;20.20;99.90
19728;DHT22;10015;52.530;13.390;2022-09-09T18:23:36;20.10;99.90
19728;DHT22;10015;52.530;13.390;2022-09-09T18:26:10;20.00;99.90
19728;DHT22;10015;52.530;13.390;2022-09-09T18:28:46;19.90;99.90
19728;DHT22;10015;52.530;13.390;2022-09-09T18:31:14;19.70;99.90
19728;DHT22;10015;52.530;13.390;2022-09-09T18:33:43;19.60;99.90
19728;DHT22;10015;52.530;13.390;2022-09-09T18:36:14;19.60;99.90
19728;DHT22;10015;52.530;13.390;2022-09-09T18:38:41;19.60;99.90
19728;DHT22;10015;52.530;13.390;2022-09-09T18:41:17;19.60;99.90
19728;DHT22;10015;52.530;13.390;2022-09-09T18:43:43;19.60;99.90
19728;DHT22;10015;52.530;13.390;2022-09-09T18:46:13;19.70;99.90
19728;DHT22;10015;52.530;13.390;2022-09-09T18:48:41;19.60;99.90
19728;DHT22;10015;52.530;13.390;2022-09-09T18:51:12;19.60;99.90
19728;DHT22;10015;52.530;13.390;2022-09-09T18:53:39;19.50;99.90
19728;DHT22;10015;52.530;13.390;2022-09-09T18:56:11;19.60;99.90
19728;DHT22;10015;52.530;13.390;2022-09-09T18:58:40;19.30;99.90
19728;DHT22;10015;52.530;13.390;2022-09-09T19:01:13;19.20;99.90
19728;DHT22;10015;52.530;13.390;2022-09-09T19:03:40;19.20;99.90
19728;DHT22;10015;52.530;13.390;2022-09-09T19:06:07;19.30;99.90
19728;DHT22;10015;52.530;13.390;2022-09-09T19:08:35;19.20;99.90
19728;DHT22;10015;52.530;13.390;2022-09-09T19:11:03;19.40;99.90
19728;DHT22;10015;52.530;13.390;2022-09-09T19:13:30;19.40;99.90
19728;DHT22;10015;52.530;13.390;2022-09-09T19:16:13;19.30;99.90
19728;DHT22;10015;52.530;13.390;2022-09-09T19:18:39;19.00;99.90
19728;DHT22;10015;52.530;13.390;2022-09-09T19:21:15;19.00;99.90
19728;DHT22;10015;52.530;13.390;2022-09-09T19:23:44;18.90;99.90
19728;DHT22;10015;52.530;13.390;2022-09-09T19:26:11;18.90;99.90
19728;DHT22;10015;52.530;13.390;2022-09-09T19:28:41;18.90;99.90
19728;DHT22;10015;52.530;13.390;2022-09-09T19:31:10;19.00;99.90
19728;DHT22;10015;52.530;13.390;2022-09-09T19:33:37;19.00;99.90
19728;DHT22;10015;52.530;13.390;2022-09-09T19:36:05;19.10;99.90
19728;DHT22;10015;52.530;13.390;2022-09-09T19:38:35;19.20;99.90
19728;DHT22;10015;52.530;13.390;2022-09-09T19:41:04;19.30;99.90
19728;DHT22;10015;52.530;13.390;2022-09-09T19:46:53;19.30;99.90
19728;DHT22;10015;52.530;13.390;2022-09-09T19:49:21;19.10;99.90
19728;DHT22;10015;52.530;13.390;2022-09-09T19:51:48;19.00;99.90
19728;DHT22;10015;52.530;13.390;2022-09-09T19:54:14;19.10;99.90
19728;DHT22;10015;52.530;13.390;2022-09-09T19:56:41;18.80;99.90
19728;DHT22;10015;52.530;13.390;2022-09-09T19:59:08;18.70;99.90
19728;DHT22;10015;52.530;13.390;2022-09-09T20:01:37;18.70;99.90
19728;DHT22;10015;52.530;13.390;2022-09-09T20:04:04;18.60;99.90
19728;DHT22;10015;52.530;13.390;2022-09-09T20:06:39;18.60;99.90
19728;DHT22;10015;52.530;13.390;2022-09-09T20:09:07;18.50;99.90
19728;DHT22;10015;52.530;13.390;2022-09-09T20:11:34;18.60;99.90
19728;DHT22;10015;52.530;13.390;2022-09-09T20:14:01;18.70;99.90
19728;DHT22;10015;52.530;13.390;2022-09-09T20:16:29;18.80;99.90
19728;DHT22;10015;52.530;13.390;2022-09-09T20:18:57;18.60;99.90
19728;DHT22;10015;52.530;13.390;2022-09-09T20:21:45;18.60;99.90
19728;DHT22;10015;52.530;13.390;2022-09-09T20:24:16;18.50;99.90
19728;DHT22;10015;52.530;13.390;2022-09-09T20:26:43;18.30;99.90
19728;DHT22;10015;52.530;13.390;2022-09-09T20:29:13;18.20;99.90
19728;DHT22;10015;52.530;13.390;2022-09-09T20:31:39;18.10;99.90
19728;DHT22;10015;52.530;13.390;2022-09-09T20:34:10;18.00;99.90
19728;DHT22;10015;52.530;13.390;2022-09-09T20:36:37;17.90;99.90
19728;DHT22;10015;52.530;13.390;2022-09-09T20:39:06;18.00;99.90
19728;DHT22;10015;52.530;13.390;2022-09-09T20:41:34;18.00;99.90
19728;DHT22;10015;52.530;13.390;2022-09-09T20:44:06;17.90;99.90
19728;DHT22;10015;52.530;13.390;2022-09-09T20:46:35;17.80;99.90
19728;DHT22;10015;52.530;13.390;2022-09-09T20:49:03;17.80;99.90
19728;DHT22;10015;52.530;13.390;2022-09-09T20:51:32;18.00;99.90
19728;DHT22;10015;52.530;13.390;2022-09-09T20:54:06;17.80;99.90
19728;DHT22;10015;52.530;13.390;2022-09-09T20:56:35;17.70;99.90
19728;DHT22;10015;52.530;13.390;2022-09-09T20:59:12;17.60;99.90
19728;DHT22;10015;52.530;13.390;2022-09-09T21:01:39;17.50;99.90
19728;DHT22;10015;52.530;13.390;2022-09-09T21:04:06;17.50;99.90
19728;DHT22;10015;52.530;13.390;2022-09-09T21:06:32;17.50;99.90
19728;DHT22;10015;52.530;13.390;2022-09-09T21:08:58;17.40;99.90
19728;DHT22;10015;52.530;13.390;2022-09-09T21:11:24;17.30;99.90
19728;DHT22;10015;52.530;13.390;2022-09-09T21:13:50;17.30;99.90
19728;DHT22;10015;52.530;13.390;2022-09-09T21:16:17;17.30;99.90
19728;DHT22;10015;52.530;13.390;2022-09-09T21:18:47;17.30;99.90
19728;DHT22;10015;52.530;13.390;2022-09-09T21:21:14;17.30;99.90
19728;DHT22;10015;52.530;13.390;2022-09-09T21:23:40;17.40;99.90
19728;DHT22;10015;52.530;13.390;2022-09-09T21:26:07;17.40;99.90